KFLL

Fort Lauderdale / Hollywood International Airport

Fort Lauderdale, Florida, USA
KFLL 221508Z 2215/2318 10007KT P6SM SCT030 SCT120 FM221800 10011KT P6SM FEW025 SCT050 FM230000 00000KT P6SM VCSH FEW025 SCT050 FM231200 10007KT P6SM VCSH FEW025 SCT050
Issued Valid From Valid To
Sep-22 @ 15:08 UTC
(15 minutes ago)
Sep-22 @ 15:00 UTC
(23 minutes ago)
Sep-23 @ 18:00 UTC
(-1 days ago)
to
to
to
to
KFLL 221508Z 2215/2318 10007KT P6SM SCT030 SCT120 FM221800 10011KT P6SM FEW025 SCT050 FM230000 00000KT P6SM VCSH FEW025 SCT050 FM231200 10007KT P6SM VCSH FEW025 SCT050
Issued Sep-22 @ 15:08 UTC
(15 minutes ago)
Valid From Sep-22 @ 15:00 UTC
(23 minutes ago)
Valid To Sep-23 @ 18:00 UTC
(-1 days ago)
-
-
-
-